sensor_id;sensor_type;location;lat;lon;timestamp;pressure;altitude;pressure_sealevel;temperature;humidity
64340;BME280;50674;53.290;-9.080;2022-08-19T00:03:09;101154.53;;;17.34;84.73
64340;BME280;50674;53.290;-9.080;2022-08-19T00:08:38;101173.16;;;17.28;85.71
64340;BME280;50674;53.290;-9.080;2022-08-19T00:14:07;101164.00;;;17.21;86.10
64340;BME280;50674;53.290;-9.080;2022-08-19T00:19:38;101161.34;;;17.11;85.43
64340;BME280;50674;53.290;-9.080;2022-08-19T00:25:07;101170.47;;;17.00;85.96
64340;BME280;50674;53.290;-9.080;2022-08-19T00:30:36;101163.84;;;16.95;86.72
64340;BME280;50674;53.290;-9.080;2022-08-19T00:36:06;101153.91;;;16.95;87.54
64340;BME280;50674;53.290;-9.080;2022-08-19T00:41:36;101169.16;;;17.04;87.38
64340;BME280;50674;53.290;-9.080;2022-08-19T00:47:05;101172.69;;;17.14;87.38
64340;BME280;50674;53.290;-9.080;2022-08-19T00:52:36;101186.16;;;17.14;85.81
64340;BME280;50674;53.290;-9.080;2022-08-19T00:58:10;101191.75;;;17.03;86.66
64340;BME280;50674;53.290;-9.080;2022-08-19T01:03:41;101174.72;;;17.03;86.22
64340;BME280;50674;53.290;-9.080;2022-08-19T01:09:10;101170.63;;;16.99;87.09
64340;BME280;50674;53.290;-9.080;2022-08-19T01:14:38;101159.41;;;16.93;87.20
64340;BME280;50674;53.290;-9.080;2022-08-19T01:20:18;101155.03;;;16.92;86.30
64340;BME280;50674;53.290;-9.080;2022-08-19T01:25:49;101150.66;;;16.91;85.90
64340;BME280;50674;53.290;-9.080;2022-08-19T01:31:19;101149.81;;;16.91;85.90
64340;BME280;50674;53.290;-9.080;2022-08-19T01:36:49;101147.09;;;16.91;86.68
64340;BME280;50674;53.290;-9.080;2022-08-19T01:42:19;101162.00;;;16.95;86.54
64340;BME280;50674;53.290;-9.080;2022-08-19T01:47:48;101159.88;;;16.89;87.54
64340;BME280;50674;53.290;-9.080;2022-08-19T01:53:17;101147.72;;;16.75;84.12
64340;BME280;50674;53.290;-9.080;2022-08-19T01:58:49;101146.44;;;16.60;83.78
64340;BME280;50674;53.290;-9.080;2022-08-19T02:04:20;101154.03;;;16.47;84.26
64340;BME280;50674;53.290;-9.080;2022-08-19T02:09:49;101154.03;;;16.37;86.27
64340;BME280;50674;53.290;-9.080;2022-08-19T02:15:19;101164.66;;;16.38;85.44
64340;BME280;50674;53.290;-9.080;2022-08-19T02:20:48;101159.97;;;16.40;86.61
64340;BME280;50674;53.290;-9.080;2022-08-19T02:26:18;101161.81;;;16.40;87.44
64340;BME280;50674;53.290;-9.080;2022-08-19T02:31:47;101159.69;;;16.43;88.18
64340;BME280;50674;53.290;-9.080;2022-08-19T02:37:15;101160.81;;;16.51;89.38
64340;BME280;50674;53.290;-9.080;2022-08-19T02:43:04;101156.00;;;16.54;87.66
64340;BME280;50674;53.290;-9.080;2022-08-19T02:48:35;101159.25;;;16.48;87.69
64340;BME280;50674;53.290;-9.080;2022-08-19T02:54:04;101161.78;;;16.50;87.67
64340;BME280;50674;53.290;-9.080;2022-08-19T02:59:34;101169.59;;;16.53;87.81
64340;BME280;50674;53.290;-9.080;2022-08-19T03:05:03;101167.91;;;16.52;88.46
64340;BME280;50674;53.290;-9.080;2022-08-19T03:10:32;101161.50;;;16.62;88.31
64340;BME280;50674;53.290;-9.080;2022-08-19T03:16:04;101165.19;;;16.61;88.46
64340;BME280;50674;53.290;-9.080;2022-08-19T03:21:34;101152.97;;;16.57;88.25
64340;BME280;50674;53.290;-9.080;2022-08-19T03:27:03;101152.28;;;16.55;88.09
64340;BME280;50674;53.290;-9.080;2022-08-19T03:32:32;101150.03;;;16.51;87.30
64340;BME280;50674;53.290;-9.080;2022-08-19T03:38:02;101150.88;;;16.51;88.20
64340;BME280;50674;53.290;-9.080;2022-08-19T03:43:32;101155.28;;;16.52;88.25
64340;BME280;50674;53.290;-9.080;2022-08-19T03:49:03;101151.16;;;16.48;89.25
64340;BME280;50674;53.290;-9.080;2022-08-19T03:54:35;101151.28;;;16.56;88.61
64340;BME280;50674;53.290;-9.080;2022-08-19T04:00:05;101143.75;;;16.60;87.92
64340;BME280;50674;53.290;-9.080;2022-08-19T04:05:35;101135.28;;;16.55;86.31
64340;BME280;50674;53.290;-9.080;2022-08-19T04:11:06;101146.44;;;16.60;85.40
64340;BME280;50674;53.290;-9.080;2022-08-19T04:16:35;101152.56;;;16.52;86.19
64340;BME280;50674;53.290;-9.080;2022-08-19T04:22:05;101149.31;;;16.58;86.91
64340;BME280;50674;53.290;-9.080;2022-08-19T04:27:35;101145.31;;;16.62;87.55
64340;BME280;50674;53.290;-9.080;2022-08-19T04:33:03;101137.34;;;16.70;86.73
64340;BME280;50674;53.290;-9.080;2022-08-19T04:38:32;101145.06;;;16.56;85.13
64340;BME280;50674;53.290;-9.080;2022-08-19T04:44:01;101148.47;;;16.48;85.59
64340;BME280;50674;53.290;-9.080;2022-08-19T04:49:30;101151.00;;;16.50;87.18
64340;BME280;50674;53.290;-9.080;2022-08-19T04:54:59;101153.56;;;16.51;86.90
64340;BME280;50674;53.290;-9.080;2022-08-19T05:00:27;101167.50;;;16.47;87.50
64340;BME280;50674;53.290;-9.080;2022-08-19T05:05:56;101168.47;;;16.55;87.55
64340;BME280;50674;53.290;-9.080;2022-08-19T05:11:25;101172.41;;;16.61;87.96
64340;BME280;50674;53.290;-9.080;2022-08-19T05:17:14;101165.59;;;16.66;88.13
64340;BME280;50674;53.290;-9.080;2022-08-19T05:22:42;101173.13;;;16.63;87.46
64340;BME280;50674;53.290;-9.080;2022-08-19T05:28:11;101161.53;;;16.43;86.53
64340;BME280;50674;53.290;-9.080;2022-08-19T05:33:39;101164.41;;;16.22;86.18
64340;BME280;50674;53.290;-9.080;2022-08-19T05:39:10;101172.91;;;15.98;87.37
64340;BME280;50674;53.290;-9.080;2022-08-19T05:44:39;101173.16;;;15.76;88.23
64340;BME280;50674;53.290;-9.080;2022-08-19T05:50:12;101183.81;;;15.87;89.80
64340;BME280;50674;53.290;-9.080;2022-08-19T05:55:40;101193.91;;;15.94;88.69
64340;BME280;50674;53.290;-9.080;2022-08-19T06:01:10;101218.66;;;15.98;89.09
64340;BME280;50674;53.290;-9.080;2022-08-19T06:06:40;101205.09;;;16.09;89.92
64340;BME280;50674;53.290;-9.080;2022-08-19T06:12:09;101199.56;;;16.20;90.00
64340;BME280;50674;53.290;-9.080;2022-08-19T06:17:38;101215.88;;;16.29;90.04
64340;BME280;50674;53.290;-9.080;2022-08-19T06:23:15;101208.63;;;16.39;90.00
64340;BME280;50674;53.290;-9.080;2022-08-19T06:28:45;101207.91;;;16.47;89.49
64340;BME280;50674;53.290;-9.080;2022-08-19T06:34:15;101194.13;;;16.50;90.40
64340;BME280;50674;53.290;-9.080;2022-08-19T06:39:44;101205.31;;;16.64;90.50
64340;BME280;50674;53.290;-9.080;2022-08-19T06:45:13;101211.81;;;16.72;90.46
64340;BME280;50674;53.290;-9.080;2022-08-19T06:50:43;101210.44;;;16.77;90.10
64340;BME280;50674;53.290;-9.080;2022-08-19T06:56:13;101206.44;;;16.91;89.44
64340;BME280;50674;53.290;-9.080;2022-08-19T07:01:48;101214.75;;;16.98;88.68
64340;BME280;50674;53.290;-9.080;2022-08-19T07:07:17;101217.31;;;16.99;88.88
64340;BME280;50674;53.290;-9.080;2022-08-19T07:12:46;101235.78;;;16.94;88.62
64340;BME280;50674;53.290;-9.080;2022-08-19T07:18:17;101229.69;;;16.92;88.93
64340;BME280;50674;53.290;-9.080;2022-08-19T07:23:46;101227.44;;;16.87;88.99
64340;BME280;50674;53.290;-9.080;2022-08-19T07:29:15;101230.69;;;16.91;89.11
64340;BME280;50674;53.290;-9.080;2022-08-19T07:34:45;101240.22;;;16.85;90.00
64340;BME280;50674;53.290;-9.080;2022-08-19T07:40:13;101233.13;;;16.84;90.00
64340;BME280;50674;53.290;-9.080;2022-08-19T07:45:42;101240.94;;;16.87;90.48
64340;BME280;50674;53.290;-9.080;2022-08-19T07:51:14;101233.91;;;17.04;90.88
64340;BME280;50674;53.290;-9.080;2022-08-19T07:56:44;101236.94;;;17.29;90.47
64340;BME280;50674;53.290;-9.080;2022-08-19T08:02:13;101237.09;;;17.55;89.90
64340;BME280;50674;53.290;-9.080;2022-08-19T08:07:42;101242.44;;;17.64;88.14
64340;BME280;50674;53.290;-9.080;2022-08-19T08:13:29;101255.91;;;17.74;86.93
64340;BME280;50674;53.290;-9.080;2022-08-19T08:18:58;101257.03;;;17.72;86.38
64340;BME280;50674;53.290;-9.080;2022-08-19T08:24:29;101271.22;;;17.83;87.04
64340;BME280;50674;53.290;-9.080;2022-08-19T08:29:59;101265.28;;;17.98;88.09
64340;BME280;50674;53.290;-9.080;2022-08-19T08:35:28;101265.31;;;18.16;88.71
64340;BME280;50674;53.290;-9.080;2022-08-19T08:40:59;101263.41;;;18.26;87.12
64340;BME280;50674;53.290;-9.080;2022-08-19T08:52:04;101266.88;;;18.18;85.73
64340;BME280;50674;53.290;-9.080;2022-08-19T09:03:03;101250.19;;;18.23;84.01
64340;BME280;50674;53.290;-9.080;2022-08-19T09:25:41;101261.09;;;18.93;83.28
64340;BME280;50674;53.290;-9.080;2022-08-19T09:31:12;101251.91;;;19.12;82.50
64340;BME280;50674;53.290;-9.080;2022-08-19T09:36:41;101254.97;;;19.17;83.13
64340;BME280;50674;53.290;-9.080;2022-08-19T09:42:11;101263.44;;;19.14;81.05
64340;BME280;50674;53.290;-9.080;2022-08-19T09:47:42;101272.09;;;18.91;81.75
64340;BME280;50674;53.290;-9.080;2022-08-19T09:53:10;101284.63;;;18.56;81.30
64340;BME280;50674;53.290;-9.080;2022-08-19T09:58:38;101285.56;;;18.29;83.41
64340;BME280;50674;53.290;-9.080;2022-08-19T10:04:08;101292.34;;;18.16;84.99
64340;BME280;50674;53.290;-9.080;2022-08-19T10:09:37;101305.75;;;18.07;85.87
64340;BME280;50674;53.290;-9.080;2022-08-19T10:15:06;101304.19;;;18.05;86.37
64340;BME280;50674;53.290;-9.080;2022-08-19T10:20:35;101297.97;;;18.04;84.12
64340;BME280;50674;53.290;-9.080;2022-08-19T10:26:05;101295.22;;;18.32;84.14
64340;BME280;50674;53.290;-9.080;2022-08-19T10:31:33;101294.06;;;18.52;84.05
64340;BME280;50674;53.290;-9.080;2022-08-19T10:37:03;101286.41;;;18.66;81.46
64340;BME280;50674;53.290;-9.080;2022-08-19T10:42:34;101304.25;;;18.58;81.50
64340;BME280;50674;53.290;-9.080;2022-08-19T10:48:03;101315.59;;;18.44;83.73
64340;BME280;50674;53.290;-9.080;2022-08-19T10:53:32;101308.28;;;18.54;86.56
64340;BME280;50674;53.290;-9.080;2022-08-19T10:59:02;101303.00;;;18.89;87.58
64340;BME280;50674;53.290;-9.080;2022-08-19T11:04:31;101299.22;;;19.25;85.01
64340;BME280;50674;53.290;-9.080;2022-08-19T11:10:00;101299.31;;;19.50;83.58
64340;BME280;50674;53.290;-9.080;2022-08-19T11:15:31;101294.06;;;19.74;85.88
64340;BME280;50674;53.290;-9.080;2022-08-19T11:21:08;101285.91;;;21.23;80.51
64340;BME280;50674;53.290;-9.080;2022-08-19T11:26:38;101278.59;;;22.18;73.14
64340;BME280;50674;53.290;-9.080;2022-08-19T11:32:08;101298.16;;;21.74;72.46
64340;BME280;50674;53.290;-9.080;2022-08-19T11:37:37;101317.50;;;20.91;74.08
64340;BME280;50674;53.290;-9.080;2022-08-19T11:43:08;101308.53;;;20.58;78.88
64340;BME280;50674;53.290;-9.080;2022-08-19T11:48:38;101310.72;;;21.03;78.32
64340;BME280;50674;53.290;-9.080;2022-08-19T11:54:07;101307.25;;;22.29;75.98
64340;BME280;50674;53.290;-9.080;2022-08-19T11:59:36;101301.50;;;22.70;71.67
64340;BME280;50674;53.290;-9.080;2022-08-19T12:05:06;101315.13;;;22.62;70.15
64340;BME280;50674;53.290;-9.080;2022-08-19T12:10:35;101313.47;;;22.61;71.05
64340;BME280;50674;53.290;-9.080;2022-08-19T12:16:08;101318.16;;;22.21;69.60
64340;BME280;50674;53.290;-9.080;2022-08-19T12:21:38;101333.75;;;21.40;70.88
64340;BME280;50674;53.290;-9.080;2022-08-19T12:27:08;101349.72;;;20.86;73.90
64340;BME280;50674;53.290;-9.080;2022-08-19T12:32:36;101352.72;;;20.50;75.17
64340;BME280;50674;53.290;-9.080;2022-08-19T12:38:05;101348.94;;;20.27;76.49
64340;BME280;50674;53.290;-9.080;2022-08-19T12:43:34;101341.41;;;20.55;75.88
64340;BME280;50674;53.290;-9.080;2022-08-19T12:49:03;101342.22;;;21.21;77.38
64340;BME280;50674;53.290;-9.080;2022-08-19T12:54:32;101348.06;;;22.21;71.07
64340;BME280;50674;53.290;-9.080;2022-08-19T13:00:05;101334.25;;;23.37;66.34
64340;BME280;50674;53.290;-9.080;2022-08-19T13:05:39;101332.69;;;24.24;62.25
64340;BME280;50674;53.290;-9.080;2022-08-19T13:11:12;101336.19;;;25.25;61.94
64340;BME280;50674;53.290;-9.080;2022-08-19T13:16:41;101343.50;;;25.80;62.75
64340;BME280;50674;53.290;-9.080;2022-08-19T13:22:11;101345.06;;;26.51;56.96
64340;BME280;50674;53.290;-9.080;2022-08-19T13:27:41;101333.53;;;26.89;52.52
64340;BME280;50674;53.290;-9.080;2022-08-19T13:33:10;101340.31;;;27.19;50.79
64340;BME280;50674;53.290;-9.080;2022-08-19T13:38:39;101333.28;;;27.50;48.20
64340;BME280;50674;53.290;-9.080;2022-08-19T13:44:08;101330.09;;;27.66;48.75
64340;BME280;50674;53.290;-9.080;2022-08-19T13:49:36;101334.59;;;27.41;46.32
64340;BME280;50674;53.290;-9.080;2022-08-19T13:55:06;101332.91;;;27.13;46.04
64340;BME280;50674;53.290;-9.080;2022-08-19T14:00:37;101336.69;;;26.99;50.64
64340;BME280;50674;53.290;-9.080;2022-08-19T14:06:07;101340.47;;;25.97;51.19
64340;BME280;50674;53.290;-9.080;2022-08-19T14:11:37;101341.84;;;25.79;54.21
64340;BME280;50674;53.290;-9.080;2022-08-19T14:17:07;101346.19;;;26.09;53.75
64340;BME280;50674;53.290;-9.080;2022-08-19T14:22:37;101350.56;;;25.96;55.16
64340;BME280;50674;53.290;-9.080;2022-08-19T14:36:14;101341.66;;;25.18;53.94
64340;BME280;50674;53.290;-9.080;2022-08-19T14:41:43;101344.56;;;25.17;54.88
64340;BME280;50674;53.290;-9.080;2022-08-19T14:47:13;101337.53;;;25.35;55.25
64340;BME280;50674;53.290;-9.080;2022-08-19T14:52:42;101339.88;;;25.73;52.69
64340;BME280;50674;53.290;-9.080;2022-08-19T14:58:11;101335.25;;;25.39;51.99
64340;BME280;50674;53.290;-9.080;2022-08-19T15:03:40;101336.56;;;24.94;54.95
64340;BME280;50674;53.290;-9.080;2022-08-19T15:09:09;101342.81;;;24.45;57.24
64340;BME280;50674;53.290;-9.080;2022-08-19T15:14:38;101356.66;;;23.77;59.61
64340;BME280;50674;53.290;-9.080;2022-08-19T15:20:07;101356.41;;;23.34;62.54
64340;BME280;50674;53.290;-9.080;2022-08-19T15:25:37;101354.66;;;22.81;64.28
64340;BME280;50674;53.290;-9.080;2022-08-19T15:31:06;101352.22;;;22.86;64.12
64340;BME280;50674;53.290;-9.080;2022-08-19T15:36:35;101350.53;;;22.85;62.39
64340;BME280;50674;53.290;-9.080;2022-08-19T15:42:04;101361.13;;;22.57;61.24
64340;BME280;50674;53.290;-9.080;2022-08-19T15:47:34;101364.38;;;22.29;62.00
64340;BME280;50674;53.290;-9.080;2022-08-19T15:53:05;101360.19;;;22.10;65.60
64340;BME280;50674;53.290;-9.080;2022-08-19T15:58:35;101369.78;;;21.90;65.31
64340;BME280;50674;53.290;-9.080;2022-08-19T16:04:22;101377.50;;;21.70;66.24
64340;BME280;50674;53.290;-9.080;2022-08-19T16:10:10;101367.66;;;21.61;68.46
64340;BME280;50674;53.290;-9.080;2022-08-19T16:15:39;101366.31;;;21.57;67.21
64340;BME280;50674;53.290;-9.080;2022-08-19T16:21:12;101369.22;;;21.47;66.58
64340;BME280;50674;53.290;-9.080;2022-08-19T16:26:45;101376.53;;;21.38;66.73
64340;BME280;50674;53.290;-9.080;2022-08-19T16:32:15;101382.47;;;21.17;66.93
64340;BME280;50674;53.290;-9.080;2022-08-19T16:37:43;101373.31;;;21.10;67.49
64340;BME280;50674;53.290;-9.080;2022-08-19T16:43:12;101384.50;;;21.07;66.53
64340;BME280;50674;53.290;-9.080;2022-08-19T16:48:41;101389.44;;;21.03;67.34
64340;BME280;50674;53.290;-9.080;2022-08-19T16:54:12;101394.88;;;20.95;64.75
64340;BME280;50674;53.290;-9.080;2022-08-19T16:59:40;101397.53;;;20.87;65.24
64340;BME280;50674;53.290;-9.080;2022-08-19T17:05:11;101394.31;;;20.75;64.71
64340;BME280;50674;53.290;-9.080;2022-08-19T17:10:42;101402.78;;;20.72;66.53
64340;BME280;50674;53.290;-9.080;2022-08-19T17:16:12;101402.28;;;20.69;66.07
64340;BME280;50674;53.290;-9.080;2022-08-19T17:21:40;101408.22;;;20.64;67.75
64340;BME280;50674;53.290;-9.080;2022-08-19T17:27:09;101410.72;;;20.58;67.51
64340;BME280;50674;53.290;-9.080;2022-08-19T17:32:39;101411.94;;;20.55;68.13
64340;BME280;50674;53.290;-9.080;2022-08-19T17:38:11;101411.00;;;20.46;69.52
64340;BME280;50674;53.290;-9.080;2022-08-19T17:43:40;101407.13;;;20.49;69.71
64340;BME280;50674;53.290;-9.080;2022-08-19T17:49:09;101409.31;;;20.45;70.83
64340;BME280;50674;53.290;-9.080;2022-08-19T17:54:39;101398.78;;;20.34;68.06
64340;BME280;50674;53.290;-9.080;2022-08-19T18:00:07;101397.44;;;20.38;69.24
64340;BME280;50674;53.290;-9.080;2022-08-19T18:05:43;101400.84;;;20.48;70.03
64340;BME280;50674;53.290;-9.080;2022-08-19T18:11:14;101389.50;;;20.45;70.15
64340;BME280;50674;53.290;-9.080;2022-08-19T18:16:43;101392.50;;;20.34;70.44
64340;BME280;50674;53.290;-9.080;2022-08-19T18:22:34;101386.88;;;20.19;71.08
64340;BME280;50674;53.290;-9.080;2022-08-19T18:28:03;101389.91;;;20.16;72.92
64340;BME280;50674;53.290;-9.080;2022-08-19T18:33:32;101392.09;;;20.12;71.98
64340;BME280;50674;53.290;-9.080;2022-08-19T18:39:02;101386.88;;;20.19;73.19
64340;BME280;50674;53.290;-9.080;2022-08-19T18:44:50;101383.66;;;20.23;74.06
64340;BME280;50674;53.290;-9.080;2022-08-19T18:50:37;101391.47;;;20.26;73.33
64340;BME280;50674;53.290;-9.080;2022-08-19T18:56:10;101379.59;;;20.19;73.76
64340;BME280;50674;53.290;-9.080;2022-08-19T19:01:41;101381.44;;;20.11;73.56
64340;BME280;50674;53.290;-9.080;2022-08-19T19:07:20;101383.06;;;19.95;74.72
64340;BME280;50674;53.290;-9.080;2022-08-19T19:12:49;101389.09;;;19.81;75.45
64340;BME280;50674;53.290;-9.080;2022-08-19T19:18:17;101390.41;;;19.77;75.36
64340;BME280;50674;53.290;-9.080;2022-08-19T19:23:47;101386.78;;;19.68;77.13
64340;BME280;50674;53.290;-9.080;2022-08-19T19:29:16;101380.69;;;19.66;76.31
64340;BME280;50674;53.290;-9.080;2022-08-19T19:34:46;101386.56;;;19.62;76.81
64340;BME280;50674;53.290;-9.080;2022-08-19T19:40:15;101394.94;;;19.50;77.02
64340;BME280;50674;53.290;-9.080;2022-08-19T19:45:45;101405.06;;;19.40;78.42
64340;BME280;50674;53.290;-9.080;2022-08-19T19:51:15;101405.66;;;19.34;78.37
64340;BME280;50674;53.290;-9.080;2022-08-19T19:56:49;101412.59;;;19.28;78.72
64340;BME280;50674;53.290;-9.080;2022-08-19T20:02:19;101412.50;;;19.20;78.00
64340;BME280;50674;53.290;-9.080;2022-08-19T20:07:49;101414.59;;;19.08;79.92
64340;BME280;50674;53.290;-9.080;2022-08-19T20:13:37;101410.19;;;19.07;79.87
64340;BME280;50674;53.290;-9.080;2022-08-19T20:19:08;101412.00;;;18.99;80.22
64340;BME280;50674;53.290;-9.080;2022-08-19T20:24:37;101411.81;;;19.00;80.46
64340;BME280;50674;53.290;-9.080;2022-08-19T20:30:07;101403.00;;;18.98;80.46
64340;BME280;50674;53.290;-9.080;2022-08-19T20:35:36;101396.53;;;18.91;80.67
64340;BME280;50674;53.290;-9.080;2022-08-19T20:41:05;101394.81;;;18.90;80.82
64340;BME280;50674;53.290;-9.080;2022-08-19T20:46:34;101400.69;;;18.85;81.49
64340;BME280;50674;53.290;-9.080;2022-08-19T20:52:03;101389.56;;;18.89;81.12
64340;BME280;50674;53.290;-9.080;2022-08-19T20:57:32;101388.72;;;18.88;81.01
64340;BME280;50674;53.290;-9.080;2022-08-19T21:03:01;101378.34;;;18.83;81.71
64340;BME280;50674;53.290;-9.080;2022-08-19T21:08:29;101376.28;;;18.77;82.20
64340;BME280;50674;53.290;-9.080;2022-08-19T21:13:58;101368.06;;;18.69;82.46
64340;BME280;50674;53.290;-9.080;2022-08-19T21:19:27;101367.47;;;18.75;81.97
64340;BME280;50674;53.290;-9.080;2022-08-19T21:24:56;101362.66;;;18.69;83.01
64340;BME280;50674;53.290;-9.080;2022-08-19T21:30:25;101361.22;;;18.75;83.17
64340;BME280;50674;53.290;-9.080;2022-08-19T21:35:54;101363.78;;;18.76;83.29
64340;BME280;50674;53.290;-9.080;2022-08-19T21:41:23;101353.94;;;18.75;83.30
64340;BME280;50674;53.290;-9.080;2022-08-19T21:46:53;101358.66;;;18.73;83.51
64340;BME280;50674;53.290;-9.080;2022-08-19T21:52:24;101349.38;;;18.76;83.74
64340;BME280;50674;53.290;-9.080;2022-08-19T21:57:53;101343.19;;;18.66;85.00
64340;BME280;50674;53.290;-9.080;2022-08-19T22:03:24;101353.47;;;18.62;85.31
64340;BME280;50674;53.290;-9.080;2022-08-19T22:08:53;101339.09;;;18.44;85.85
64340;BME280;50674;53.290;-9.080;2022-08-19T22:14:24;101342.25;;;18.57;85.70
64340;BME280;50674;53.290;-9.080;2022-08-19T22:19:54;101338.91;;;18.45;86.16
64340;BME280;50674;53.290;-9.080;2022-08-19T22:25:24;101349.22;;;18.59;85.68
64340;BME280;50674;53.290;-9.080;2022-08-19T22:30:53;101342.09;;;18.58;85.64
64340;BME280;50674;53.290;-9.080;2022-08-19T22:36:23;101337.69;;;18.57;85.29
64340;BME280;50674;53.290;-9.080;2022-08-19T22:41:53;101319.38;;;18.69;84.22
64340;BME280;50674;53.290;-9.080;2022-08-19T22:47:22;101322.22;;;18.68;83.96
64340;BME280;50674;53.290;-9.080;2022-08-19T22:52:55;101322.81;;;18.71;83.73
64340;BME280;50674;53.290;-9.080;2022-08-19T22:58:25;101315.09;;;18.76;84.70
64340;BME280;50674;53.290;-9.080;2022-08-19T23:03:55;101322.53;;;18.65;85.88
64340;BME280;50674;53.290;-9.080;2022-08-19T23:09:24;101314.97;;;18.68;86.00
64340;BME280;50674;53.290;-9.080;2022-08-19T23:14:53;101306.84;;;18.68;86.19
64340;BME280;50674;53.290;-9.080;2022-08-19T23:20:22;101291.94;;;18.64;86.48
64340;BME280;50674;53.290;-9.080;2022-08-19T23:25:54;101288.69;;;18.60;87.09
64340;BME280;50674;53.290;-9.080;2022-08-19T23:31:24;101288.88;;;18.41;87.99
64340;BME280;50674;53.290;-9.080;2022-08-19T23:36:53;101282.16;;;18.45;87.04
64340;BME280;50674;53.290;-9.080;2022-08-19T23:42:22;101287.63;;;18.53;85.70
64340;BME280;50674;53.290;-9.080;2022-08-19T23:47:52;101275.72;;;18.46;86.27
64340;BME280;50674;53.290;-9.080;2022-08-19T23:53:21;101269.41;;;18.55;86.04
64340;BME280;50674;53.290;-9.080;2022-08-19T23:58:50;101249.63;;;18.55;86.45
